Time;durP1;ratioP1;P1;durP2;ratioP2;P2;SDS_P1;SDS_P2;PMS_P1;PMS_P2;Temp;Humidity;BMP_temperature;BMP_pressure;BME280_temperature;BME280_humidity;BME280_pressure;Samples;Min_cycle;Max_cycle;Signal;HPM_P1;HPM_P2
2023/01/05 00:01:45;;;;;;;13.77;2.53;;;;;;;12.23;51.38;100980.69;7388698;19;20006;-60
2023/01/05 00:04:11;;;;;;;15.48;3.70;;;;;;;12.22;51.60;100973.63;7388184;19;20002;-60
2023/01/05 00:06:38;;;;;;;15.73;2.85;;;;;;;11.66;52.50;100981.72;7395262;19;20006;-59
2023/01/05 00:09:05;;;;;;;16.50;2.95;;;;;;;11.99;51.71;100978.00;7394811;19;20018;-59
2023/01/05 00:22:45;;;;;;;12.63;2.47;;;;;;;12.16;50.65;100979.69;7394995;19;20015;-59
2023/01/05 00:25:14;;;;;;;15.57;2.40;;;;;;;12.01;51.36;100986.69;7393949;19;20019;-58
2023/01/05 00:27:42;;;;;;;12.52;2.85;;;;;;;12.15;51.19;100973.41;7391950;19;20003;-59
2023/01/05 00:30:13;;;;;;;13.85;2.33;;;;;;;11.94;51.78;100984.56;7394109;19;20018;-58
2023/01/05 00:32:42;;;;;;;12.13;2.13;;;;;;;11.89;51.85;100978.50;7392717;19;19999;-59
2023/01/05 00:35:09;;;;;;;12.50;2.92;;;;;;;11.97;51.69;100978.38;7394226;19;20006;-58
2023/01/05 00:37:37;;;;;;;13.13;2.35;;;;;;;11.93;52.13;100990.38;7396107;19;20002;-59
2023/01/05 00:40:07;;;;;;;13.75;2.15;;;;;;;11.94;51.86;100978.25;7395868;19;20002;-58
2023/01/05 00:42:33;;;;;;;15.90;3.15;;;;;;;12.02;52.01;100972.66;7392901;19;20007;-59
2023/01/05 00:45:02;;;;;;;14.10;2.50;;;;;;;11.94;52.04;100970.06;7391020;19;19994;-59
2023/01/05 00:47:28;;;;;;;11.50;2.50;;;;;;;11.81;52.13;100981.00;7395715;19;20002;-59
2023/01/05 00:49:54;;;;;;;13.98;2.58;;;;;;;11.73;52.57;100989.34;7392529;19;20353;-59
2023/01/05 00:52:19;;;;;;;13.15;2.42;;;;;;;11.76;52.29;100997.66;7393344;19;20019;-59
2023/01/05 00:54:45;;;;;;;9.32;1.85;;;;;;;11.58;52.85;100990.84;7393410;19;19999;-59
2023/01/05 00:57:12;;;;;;;10.85;2.50;;;;;;;11.70;52.59;100998.22;7392658;19;19998;-58
2023/01/05 00:59:41;;;;;;;11.48;2.03;;;;;;;11.64;53.05;101011.34;7393482;19;20005;-58
2023/01/05 01:02:08;;;;;;;9.82;2.40;;;;;;;11.54;53.75;101009.06;7394293;19;20065;-58
2023/01/05 01:04:34;;;;;;;13.95;2.28;;;;;;;11.63;53.48;101004.28;7391747;19;20418;-58
2023/01/05 01:07:02;;;;;;;10.10;1.95;;;;;;;11.77;52.84;101007.47;7393023;19;20097;-58
2023/01/05 01:09:28;;;;;;;8.18;1.63;;;;;;;11.68;53.23;101025.91;7395029;19;20024;-58
2023/01/05 01:11:57;;;;;;;9.95;2.03;;;;;;;11.78;52.93;101003.56;7394149;19;19999;-59
2023/01/05 01:14:26;;;;;;;10.27;2.22;;;;;;;11.81;52.77;101010.31;7393325;19;20003;-58
2023/01/05 01:16:52;;;;;;;9.85;2.15;;;;;;;11.47;53.47;101015.91;7390842;19;20003;-58
2023/01/05 01:19:20;;;;;;;10.88;2.17;;;;;;;11.55;53.56;101024.34;7392105;19;19998;-59
2023/01/05 01:21:47;;;;;;;11.55;2.38;;;;;;;11.70;52.91;101012.69;7392479;19;20006;-58
2023/01/05 01:24:23;;;;;;;10.55;2.13;;;;;;;11.73;52.59;101014.75;7389475;19;20070;-58
2023/01/05 01:26:49;;;;;;;8.13;1.67;;;;;;;11.88;52.38;101012.47;7385083;19;20006;-59
2023/01/05 01:29:18;;;;;;;10.02;1.90;;;;;;;11.71;52.87;101021.72;7394437;19;20011;-59
2023/01/05 01:31:47;;;;;;;10.55;2.08;;;;;;;11.60;53.09;101026.84;7394514;19;20002;-59
2023/01/05 01:34:13;;;;;;;10.15;1.90;;;;;;;11.76;52.71;101027.72;7392020;19;20054;-59
2023/01/05 01:36:39;;;;;;;7.85;1.88;;;;;;;11.76;52.93;101044.16;7393263;19;19999;-60
2023/01/05 01:39:04;;;;;;;10.38;2.40;;;;;;;11.93;52.54;101042.34;7392168;19;20044;-59
2023/01/05 01:41:30;;;;;;;11.85;2.28;;;;;;;11.68;53.08;101053.25;7393517;19;19991;-59
2023/01/05 01:43:57;;;;;;;9.35;1.95;;;;;;;11.64;53.25;101035.97;7391812;19;20339;-57
2023/01/05 01:46:24;;;;;;;10.73;1.70;;;;;;;11.55;53.41;101052.47;7392962;19;19998;-59
2023/01/05 01:49:04;;;;;;;7.00;1.40;;;;;;;11.66;52.81;101052.81;7393507;19;20361;-59
2023/01/05 01:51:56;;;;;;;8.20;1.58;;;;;;;11.28;53.36;101051.97;7392975;19;20509;-59
2023/01/05 01:54:22;;;;;;;7.65;2.40;;;;;;;11.47;53.31;101064.28;7391193;19;19995;-59
2023/01/05 01:56:52;;;;;;;10.25;1.90;;;;;;;11.47;53.28;101067.84;7391943;19;20024;-59
2023/01/05 01:59:18;;;;;;;10.13;2.47;;;;;;;11.24;54.10;101069.41;7393391;19;20062;-59
2023/01/05 02:01:44;;;;;;;7.97;2.00;;;;;;;11.07;54.07;101068.47;7393312;19;20346;-57
2023/01/05 02:04:10;;;;;;;12.40;2.30;;;;;;;11.36;53.67;101072.16;7390395;19;20106;-59
2023/01/05 02:06:37;;;;;;;12.40;2.28;;;;;;;11.59;52.93;101071.69;7390354;19;20030;-59
2023/01/05 02:09:04;;;;;;;10.68;2.20;;;;;;;11.61;52.74;101067.50;7391084;19;20019;-59
2023/01/05 02:11:56;;;;;;;8.75;1.80;;;;;;;11.54;52.54;101074.66;7392997;19;20003;-58
2023/01/05 02:14:30;;;;;;;11.48;2.15;;;;;;;11.55;52.59;101066.13;7391512;19;20003;-59
2023/01/05 02:17:03;;;;;;;9.68;1.95;;;;;;;11.51;52.39;101073.44;7391889;19;20022;-59
2023/01/05 02:19:47;;;;;;;9.05;2.00;;;;;;;11.35;52.69;101069.75;7392081;19;20415;-58
2023/01/05 02:22:46;;;;;;;10.52;2.05;;;;;;;11.40;52.17;101059.41;7390440;19;20003;-58
2023/01/05 02:25:46;;;;;;;10.63;1.98;;;;;;;11.41;52.36;101066.47;7390808;19;20384;-57
2023/01/05 02:28:30;;;;;;;7.20;1.52;;;;;;;11.56;52.04;101067.72;7388823;19;19999;-58
2023/01/05 02:31:07;;;;;;;9.23;2.28;;;;;;;11.68;51.57;101069.66;7392487;19;20443;-60
2023/01/05 02:34:06;;;;;;;13.30;3.25;;;;;;;11.68;51.37;101075.13;7390493;19;19999;-60
2023/01/05 02:36:52;;;;;;;12.57;2.45;;;;;;;11.87;51.22;101071.84;7390990;19;20009;-61
2023/01/05 02:39:27;;;;;;;7.63;1.90;;;;;;;11.70;51.40;101061.91;7389659;19;19998;-60
2023/01/05 02:41:58;;;;;;;7.40;1.83;;;;;;;11.72;51.35;101073.28;7389689;19;20447;-60
2023/01/05 02:44:28;;;;;;;7.60;1.52;;;;;;;11.84;51.49;101072.53;7389787;19;19991;-61
2023/01/05 02:47:27;;;;;;;9.43;1.60;;;;;;;11.77;51.14;101073.09;7388058;19;20451;-58
2023/01/05 02:50:11;;;;;;;7.32;1.45;;;;;;;11.76;51.15;101073.44;7390285;19;19995;-59
2023/01/05 02:52:53;;;;;;;7.35;1.67;;;;;;;11.60;51.89;101076.84;7389811;19;20006;-58
2023/01/05 02:55:31;;;;;;;9.30;1.70;;;;;;;11.54;52.01;101070.00;7391357;19;20018;-59
2023/01/05 02:58:09;;;;;;;8.00;1.83;;;;;;;11.77;51.50;101084.03;7388995;19;20459;-58
2023/01/05 03:00:41;;;;;;;10.48;1.80;;;;;;;11.76;51.43;101074.22;7391368;19;19995;-58
2023/01/05 03:03:28;;;;;;;10.45;1.83;;;;;;;11.63;51.54;101073.41;7387572;19;20476;-59
2023/01/05 03:06:08;;;;;;;8.27;1.60;;;;;;;11.51;51.84;101091.78;7390312;19;20006;-59
2023/01/05 03:08:39;;;;;;;7.35;1.80;;;;;;;11.70;51.42;101091.19;7388983;19;20486;-59
2023/01/05 03:14:21;;;;;;;11.98;2.45;;;;;;;11.75;51.50;101097.22;7389576;19;20121;-58
2023/01/05 03:16:48;;;;;;;8.88;2.20;;;;;;;11.68;51.79;101091.53;7387003;19;20002;-58
2023/01/05 03:19:35;;;;;;;8.02;2.20;;;;;;;11.41;52.46;101096.53;7392636;19;20439;-58
2023/01/05 03:36:28;;;;;;;15.48;2.72;;;;;;;11.58;51.41;101105.66;7392496;19;20011;-58
2023/01/05 03:38:56;;;;;;;13.32;2.38;;;;;;;11.73;51.13;101121.38;7392979;19;20013;-57
2023/01/05 03:41:22;;;;;;;12.45;2.58;;;;;;;11.79;50.94;101097.34;7400995;19;20058;-58
2023/01/05 03:43:49;;;;;;;11.52;2.88;;;;;;;11.68;51.07;101107.94;7398364;19;20006;-58
2023/01/05 03:46:18;;;;;;;16.08;3.08;;;;;;;11.65;50.98;101120.34;7398926;19;20003;-57
2023/01/05 03:48:45;;;;;;;11.98;2.88;;;;;;;11.61;50.99;101115.94;7398537;19;20003;-58
2023/01/05 03:51:13;;;;;;;13.85;2.40;;;;;;;11.71;50.72;101112.72;7400321;19;19999;-59
2023/01/05 03:53:39;;;;;;;14.45;2.65;;;;;;;11.56;51.41;101113.41;7397035;19;20006;-57
2023/01/05 03:56:05;;;;;;;12.00;2.67;;;;;;;11.69;50.64;101115.03;7399700;19;20469;-58
2023/01/05 03:58:31;;;;;;;14.20;2.67;;;;;;;11.76;50.74;101126.19;7399777;19;20054;-58
2023/01/05 04:00:57;;;;;;;14.60;3.10;;;;;;;11.60;51.03;101122.53;7399811;19;20016;-59
2023/01/05 04:03:23;;;;;;;16.27;3.38;;;;;;;11.83;50.67;101129.13;7396199;19;20003;-59
2023/01/05 04:05:48;;;;;;;18.55;2.80;;;;;;;11.54;51.45;101135.63;7400497;19;20527;-59
2023/01/05 04:08:15;;;;;;;12.15;2.55;;;;;;;11.62;51.20;101142.09;7396202;19;20006;-58
2023/01/05 04:10:41;;;;;;;16.77;3.10;;;;;;;11.43;51.55;101146.19;7395063;19;20010;-58
2023/01/05 04:13:07;;;;;;;16.17;2.72;;;;;;;11.52;51.53;101131.63;7393609;19;20003;-59
2023/01/05 04:15:33;;;;;;;13.60;2.72;;;;;;;11.44;51.54;101147.00;7393884;19;20035;-60
2023/01/05 04:17:59;;;;;;;13.65;2.55;;;;;;;11.69;50.81;101147.84;7395841;19;20006;-59
2023/01/05 04:20:24;;;;;;;15.98;2.65;;;;;;;11.77;50.61;101146.94;7396039;19;20058;-60
2023/01/05 04:22:50;;;;;;;17.73;3.10;;;;;;;11.55;50.74;101158.28;7394717;19;20002;-59
2023/01/05 04:25:16;;;;;;;15.68;3.00;;;;;;;11.31;51.62;101168.03;7394037;19;20463;-59
2023/01/05 04:27:42;;;;;;;16.95;3.20;;;;;;;11.63;51.15;101165.59;7391022;19;19997;-59
2023/01/05 04:30:08;;;;;;;15.18;3.03;;;;;;;11.55;51.15;101155.53;7396205;19;20014;-59
2023/01/05 04:32:34;;;;;;;14.95;3.35;;;;;;;11.83;50.60;101169.38;7392659;19;20027;-58
2023/01/05 04:35:00;;;;;;;14.40;2.60;;;;;;;11.84;50.16;101174.53;7395419;19;19999;-59
2023/01/05 04:37:32;;;;;;;14.05;2.45;;;;;;;11.65;50.26;101179.72;7391929;19;19998;-59
2023/01/05 04:39:57;;;;;;;14.77;2.50;;;;;;;11.59;50.72;101172.84;7395459;19;20010;-59
2023/01/05 04:42:23;;;;;;;13.13;2.58;;;;;;;11.61;50.70;101173.34;7394366;19;19999;-58
2023/01/05 04:44:49;;;;;;;14.18;3.40;;;;;;;11.71;50.32;101167.41;7393440;19;20483;-58
2023/01/05 04:47:15;;;;;;;15.98;3.10;;;;;;;11.71;50.29;101170.16;7392260;19;20002;-59
2023/01/05 04:49:41;;;;;;;12.50;2.58;;;;;;;11.77;50.13;101160.59;7394006;19;20010;-59
2023/01/05 04:52:07;;;;;;;12.35;2.67;;;;;;;11.47;50.45;101179.91;7394477;19;20002;-59
2023/01/05 04:54:33;;;;;;;11.32;2.45;;;;;;;11.48;50.97;101181.50;7393786;19;20320;-58
2023/01/05 04:56:58;;;;;;;14.32;2.60;;;;;;;11.47;50.85;101193.59;7393288;19;20455;-59
2023/01/05 04:59:24;;;;;;;11.10;2.60;;;;;;;11.65;50.48;101191.44;7394618;19;20025;-59
2023/01/05 05:01:50;;;;;;;14.13;2.70;;;;;;;11.68;50.31;101195.44;7393648;19;20479;-59
2023/01/05 05:04:16;;;;;;;14.00;2.35;;;;;;;11.84;50.14;101188.22;7391890;19;20002;-58
2023/01/05 05:06:41;;;;;;;13.65;2.75;;;;;;;11.86;50.06;101190.59;7390441;19;20106;-59
2023/01/05 05:09:07;;;;;;;14.35;2.83;;;;;;;11.76;50.47;101202.75;7393751;19;20003;-58
2023/01/05 05:11:33;;;;;;;18.77;2.60;;;;;;;11.52;50.76;101219.09;7393932;19;19999;-58
2023/01/05 05:13:59;;;;;;;9.43;2.20;;;;;;;11.34;51.39;101213.81;7392580;19;20010;-58
2023/01/05 05:16:24;;;;;;;14.88;2.28;;;;;;;11.69;50.40;101202.53;7393231;19;20099;-56
2023/01/05 05:18:50;;;;;;;12.30;2.17;;;;;;;11.49;50.61;101220.59;7393315;19;19998;-57
2023/01/05 05:21:16;;;;;;;13.20;2.30;;;;;;;11.51;50.82;101225.72;7393076;19;20083;-59
2023/01/05 05:23:41;;;;;;;11.82;2.67;;;;;;;11.46;51.22;101227.50;7392246;19;20005;-59
2023/01/05 05:26:07;;;;;;;14.80;3.40;;;;;;;11.37;51.52;101210.41;7393228;19;20007;-59
2023/01/05 05:28:33;;;;;;;12.60;3.28;;;;;;;11.58;50.97;101228.69;7390989;19;20013;-58
2023/01/05 05:30:59;;;;;;;14.13;3.20;;;;;;;11.61;50.61;101228.00;7394186;19;20010;-59
2023/01/05 05:33:25;;;;;;;15.55;3.00;;;;;;;11.75;50.27;101250.38;7391266;19;20351;-58
2023/01/05 05:35:51;;;;;;;15.10;3.75;;;;;;;11.55;50.73;101234.81;7391939;19;20075;-58
2023/01/05 05:38:17;;;;;;;20.25;4.45;;;;;;;11.89;50.08;101247.38;7393766;19;20027;-57
2023/01/05 05:40:43;;;;;;;15.73;3.70;;;;;;;11.67;50.80;101248.53;7394084;19;19991;-59
2023/01/05 05:43:08;;;;;;;16.95;3.70;;;;;;;11.58;50.90;101251.34;7392048;19;20317;-59
2023/01/05 05:45:34;;;;;;;16.50;3.65;;;;;;;11.58;50.93;101266.97;7391565;19;20074;-58
2023/01/05 05:48:00;;;;;;;17.50;3.65;;;;;;;11.38;51.44;101246.72;7393005;19;20003;-59
2023/01/05 05:50:26;;;;;;;14.48;3.50;;;;;;;11.51;50.85;101255.78;7393666;19;20006;-59
2023/01/05 05:52:52;;;;;;;15.98;3.53;;;;;;;11.48;51.42;101252.56;7391170;19;20002;-59
2023/01/05 05:55:18;;;;;;;15.93;3.40;;;;;;;11.52;51.18;101263.63;7393847;19;20022;-58
2023/01/05 05:57:44;;;;;;;16.02;3.50;;;;;;;11.65;51.01;101261.72;7392002;19;20353;-58
2023/01/05 06:00:10;;;;;;;16.27;2.75;;;;;;;11.48;51.44;101274.44;7392679;19;19998;-58
2023/01/05 06:02:36;;;;;;;19.48;3.00;;;;;;;11.42;51.50;101275.78;7387919;19;20006;-59
2023/01/05 06:05:01;;;;;;;18.40;3.00;;;;;;;11.20;51.67;101273.41;7391311;19;19999;-59
2023/01/05 06:07:27;;;;;;;18.00;3.70;;;;;;;11.32;51.50;101273.44;7391069;19;20099;-60
2023/01/05 06:09:53;;;;;;;16.20;3.38;;;;;;;11.13;51.55;101278.63;7392520;19;20005;-59
2023/01/05 06:12:19;;;;;;;17.10;3.28;;;;;;;11.46;51.00;101286.84;7391656;19;20043;-58
2023/01/05 06:14:44;;;;;;;17.77;3.15;;;;;;;11.73;50.43;101290.94;7392368;19;19999;-59
2023/01/05 06:17:10;;;;;;;15.73;3.30;;;;;;;11.52;50.74;101295.63;7389071;19;20033;-58
2023/01/05 06:19:36;;;;;;;20.25;4.10;;;;;;;11.53;51.08;101308.97;7391400;19;20032;-59
2023/01/05 06:22:02;;;;;;;15.90;3.80;;;;;;;11.58;51.51;101314.22;7390878;19;20066;-59
2023/01/05 06:24:27;;;;;;;15.57;4.03;;;;;;;11.38;52.00;101313.13;7390136;19;20474;-59
2023/01/05 06:26:53;;;;;;;19.80;4.72;;;;;;;11.42;52.08;101315.97;7390368;19;20007;-59
2023/01/05 06:29:19;;;;;;;17.67;4.60;;;;;;;11.49;52.09;101316.25;7392742;19;20080;-58
2023/01/05 06:31:45;;;;;;;12.57;4.18;;;;;;;11.61;52.03;101316.28;7391163;19;20479;-58
2023/01/05 06:34:10;;;;;;;16.65;4.53;;;;;;;11.58;52.37;101318.91;7388328;19;20002;-59
2023/01/05 06:36:36;;;;;;;19.98;4.95;;;;;;;11.44;52.44;101322.72;7390613;19;20083;-59
2023/01/05 06:39:02;;;;;;;19.85;5.55;;;;;;;11.45;52.48;101323.50;7390700;19;19999;-58
2023/01/05 06:41:28;;;;;;;19.35;5.55;;;;;;;11.51;52.18;101326.84;7390037;19;19998;-58
2023/01/05 06:43:53;;;;;;;19.90;5.45;;;;;;;11.42;52.01;101330.47;7390081;19;19998;-61
2023/01/05 06:46:19;;;;;;;22.83;6.35;;;;;;;11.30;52.40;101346.78;7388619;19;20015;-58
2023/01/05 06:48:45;;;;;;;18.40;5.13;;;;;;;11.36;52.27;101347.41;7391444;19;20066;-59
2023/01/05 06:51:10;;;;;;;18.67;5.53;;;;;;;11.46;51.88;101361.44;7391633;19;20021;-60
2023/01/05 06:53:36;;;;;;;15.57;4.60;;;;;;;11.52;51.68;101362.03;7390107;19;20059;-58
2023/01/05 06:56:02;;;;;;;14.25;3.90;;;;;;;11.57;51.67;101367.31;7391071;19;19999;-59
2023/01/05 06:58:28;;;;;;;14.18;4.07;;;;;;;11.43;51.82;101375.78;7391131;19;20006;-59
2023/01/05 07:00:53;;;;;;;16.92;3.90;;;;;;;11.44;51.79;101377.38;7390940;19;20451;-58
2023/01/05 07:03:19;;;;;;;17.67;4.20;;;;;;;11.45;51.73;101378.97;7389307;19;20010;-58
2023/01/05 07:05:45;;;;;;;17.52;4.50;;;;;;;11.43;51.76;101372.25;7389269;19;20011;-59
2023/01/05 07:08:11;;;;;;;17.10;5.68;;;;;;;11.55;51.52;101387.91;7390590;19;19999;-59
2023/01/05 07:10:36;;;;;;;19.90;5.78;;;;;;;11.43;51.62;101383.97;7391345;19;20396;-58
2023/01/05 07:13:02;;;;;;;22.95;6.80;;;;;;;11.41;51.86;101394.44;7389640;19;20015;-58
2023/01/05 07:15:28;;;;;;;26.80;9.18;;;;;;;11.41;51.73;101393.66;7398306;19;19999;-58
2023/01/05 07:17:54;;;;;;;26.80;8.68;;;;;;;11.53;51.41;101391.00;7397952;19;20435;-58
2023/01/05 07:20:19;;;;;;;26.98;6.93;;;;;;;11.29;51.80;101397.13;7398564;19;20003;-58
2023/01/05 07:22:45;;;;;;;23.35;6.00;;;;;;;11.30;51.41;101404.16;7394987;19;20050;-58
2023/01/05 07:25:11;;;;;;;16.65;4.85;;;;;;;11.14;51.63;101400.41;7396789;19;19999;-58
2023/01/05 07:27:37;;;;;;;20.48;5.43;;;;;;;11.15;50.78;101421.13;7394921;19;20003;-59
2023/01/05 07:30:03;;;;;;;13.77;3.50;;;;;;;11.23;50.44;101415.63;7397710;19;20489;-58
2023/01/05 07:32:28;;;;;;;14.63;3.95;;;;;;;11.29;50.19;101425.22;7396863;19;20002;-58
2023/01/05 07:34:54;;;;;;;20.83;4.55;;;;;;;11.44;49.93;101428.53;7396846;19;19998;-63
2023/01/05 07:37:20;;;;;;;17.75;4.75;;;;;;;11.53;49.60;101431.19;7393699;19;19995;-58
2023/01/05 07:39:46;;;;;;;20.75;5.22;;;;;;;11.61;49.42;101433.88;7397398;19;20451;-59
2023/01/05 07:42:12;;;;;;;19.05;5.50;;;;;;;11.51;49.63;101431.53;7398128;19;20024;-58
2023/01/05 07:44:37;;;;;;;18.60;6.20;;;;;;;11.57;49.42;101434.84;7394027;19;20003;-58
2023/01/05 07:47:03;;;;;;;21.63;6.63;;;;;;;11.62;49.31;101437.41;7394500;19;20074;-59
2023/01/05 07:49:29;;;;;;;18.48;6.40;;;;;;;11.53;49.30;101444.88;7397144;19;20019;-58
2023/01/05 07:51:55;;;;;;;19.45;6.38;;;;;;;11.51;49.32;101456.13;7396894;19;20053;-59
2023/01/05 07:54:20;;;;;;;13.98;4.60;;;;;;;11.19;49.49;101452.13;7395104;19;20024;-59
2023/01/05 07:56:46;;;;;;;14.73;4.18;;;;;;;11.15;49.90;101456.66;7395627;19;19998;-58
2023/01/05 07:59:12;;;;;;;16.08;3.47;;;;;;;11.18;49.34;101462.25;7397269;19;19999;-58
2023/01/05 08:01:38;;;;;;;15.25;3.25;;;;;;;11.06;49.40;101462.16;7396110;19;20030;-59
2023/01/05 08:04:04;;;;;;;12.05;3.03;;;;;;;11.28;48.84;101470.09;7394976;19;20016;-59
2023/01/05 08:06:29;;;;;;;11.75;2.80;;;;;;;11.16;48.93;101474.66;7392792;19;20003;-59
2023/01/05 08:08:56;;;;;;;14.85;3.13;;;;;;;11.28;48.84;101477.50;7397397;19;20066;-59
2023/01/05 08:11:21;;;;;;;14.13;3.95;;;;;;;11.36;48.55;101479.38;7396485;19;20003;-59
2023/01/05 08:14:01;;;;;;;15.32;3.50;;;;;;;11.41;48.01;101476.44;7395357;19;19999;-59
2023/01/05 08:16:31;;;;;;;15.75;3.65;;;;;;;11.46;48.30;101489.13;7394557;19;20002;-58
2023/01/05 08:18:58;;;;;;;18.90;4.45;;;;;;;11.34;48.45;101492.56;7395952;19;20043;-58
2023/01/05 08:21:24;;;;;;;18.50;3.83;;;;;;;11.14;48.58;101505.03;7396299;19;20020;-59
2023/01/05 08:23:51;;;;;;;14.65;3.50;;;;;;;11.20;48.12;101502.91;7394934;19;20002;-58
2023/01/05 08:26:21;;;;;;;16.15;3.15;;;;;;;11.26;48.24;101512.53;7393471;19;20126;-59
2023/01/05 08:28:47;;;;;;;14.32;2.92;;;;;;;11.25;48.02;101516.41;7390545;19;20022;-59
2023/01/05 08:31:25;;;;;;;12.88;3.33;;;;;;;11.27;47.44;101525.06;7396216;19;20011;-59
2023/01/05 08:33:58;;;;;;;10.68;2.28;;;;;;;11.23;47.45;101532.31;7392871;19;20001;-59
2023/01/05 08:36:25;;;;;;;11.40;2.30;;;;;;;11.14;48.05;101537.00;7394634;19;20018;-58
2023/01/05 08:38:52;;;;;;;12.57;2.30;;;;;;;11.19;47.74;101537.66;7395041;19;20263;-59
2023/01/05 08:41:21;;;;;;;9.43;2.13;;;;;;;11.27;47.64;101546.94;7396924;19;19995;-59
2023/01/05 08:43:57;;;;;;;10.65;2.60;;;;;;;11.23;47.08;101563.19;7393843;19;20002;-59
2023/01/05 08:46:26;;;;;;;12.02;1.90;;;;;;;11.22;47.27;101566.22;7392557;19;20010;-59
2023/01/05 08:48:55;;;;;;;11.65;2.30;;;;;;;11.35;47.11;101569.91;7395604;19;20007;-58
2023/01/05 08:51:21;;;;;;;11.40;2.90;;;;;;;11.27;47.21;101574.25;7395569;19;20026;-58
2023/01/05 08:53:47;;;;;;;9.93;2.10;;;;;;;11.13;47.16;101576.41;7391481;19;20361;-59
2023/01/05 08:56:19;;;;;;;14.35;2.33;;;;;;;11.17;47.38;101591.00;7394014;19;20007;-59
2023/01/05 08:58:45;;;;;;;10.25;2.00;;;;;;;11.10;47.17;101596.97;7394218;19;20023;-59
2023/01/05 09:01:13;;;;;;;9.63;2.17;;;;;;;11.07;47.08;101601.16;7393561;19;20362;-59
2023/01/05 09:03:39;;;;;;;11.57;2.42;;;;;;;11.07;47.21;101609.38;7391571;19;19998;-59
2023/01/05 09:06:08;;;;;;;11.57;2.08;;;;;;;10.90;47.65;101609.38;7394270;19;20067;-59
2023/01/05 09:08:34;;;;;;;11.23;2.13;;;;;;;10.91;47.32;101617.25;7393082;19;20071;-59
2023/01/05 09:11:15;;;;;;;11.50;2.25;;;;;;;10.99;47.03;101623.03;7394829;19;19998;-58
2023/01/05 09:13:45;;;;;;;9.73;1.92;;;;;;;11.18;46.52;101639.88;7392977;19;20010;-57
2023/01/05 09:16:13;;;;;;;10.70;2.25;;;;;;;11.13;46.91;101631.84;7393430;19;20003;-59
2023/01/05 09:18:41;;;;;;;13.15;2.22;;;;;;;11.14;46.61;101629.91;7393785;19;20009;-59
2023/01/05 09:21:08;;;;;;;9.32;2.03;;;;;;;11.05;46.85;101638.91;7394084;19;20003;-58
2023/01/05 09:23:34;;;;;;;11.77;2.00;;;;;;;10.97;47.07;101637.03;7393386;19;19995;-58
2023/01/05 09:26:04;;;;;;;9.93;1.60;;;;;;;10.88;47.10;101638.97;7393000;19;19999;-58
2023/01/05 09:28:29;;;;;;;10.45;1.88;;;;;;;11.03;47.00;101641.19;7392219;19;19995;-58
2023/01/05 09:30:55;;;;;;;11.45;2.22;;;;;;;11.08;46.91;101634.75;7393149;19;20038;-58
2023/01/05 09:33:21;;;;;;;12.10;1.98;;;;;;;11.13;46.72;101650.97;7392474;19;20026;-59
2023/01/05 09:35:56;;;;;;;11.50;2.40;;;;;;;11.19;46.54;101635.19;7392725;19;20405;-59
2023/01/05 09:38:23;;;;;;;9.05;1.98;;;;;;;11.14;46.50;101654.50;7391140;19;20039;-58
2023/01/05 09:40:52;;;;;;;13.77;2.20;;;;;;;11.17;46.72;101657.41;7394233;19;20382;-58
2023/01/05 09:43:24;;;;;;;8.57;2.20;;;;;;;11.13;46.56;101672.03;7391585;19;20048;-58
2023/01/05 09:45:50;;;;;;;10.95;2.45;;;;;;;11.14;46.86;101679.09;7389713;19;20036;-58
2023/01/05 09:48:17;;;;;;;8.27;2.15;;;;;;;11.17;46.53;101678.44;7390949;19;20003;-59
2023/01/05 09:50:45;;;;;;;11.50;2.42;;;;;;;11.19;46.59;101687.94;7392817;19;20435;-59
2023/01/05 09:53:14;;;;;;;15.25;2.72;;;;;;;11.32;46.23;101683.38;7389511;19;20372;-59
2023/01/05 09:55:41;;;;;;;8.95;1.77;;;;;;;11.26;46.39;101690.19;7393631;19;19995;-58
2023/01/05 09:58:15;;;;;;;12.98;2.38;;;;;;;11.42;46.10;101693.19;7392626;19;20054;-58
2023/01/05 10:00:45;;;;;;;11.98;1.92;;;;;;;11.43;46.43;101698.31;7393611;19;20006;-59
2023/01/05 10:03:20;;;;;;;8.55;1.58;;;;;;;11.23;46.29;101699.03;7391026;19;20007;-58
2023/01/05 10:05:46;;;;;;;9.45;1.63;;;;;;;11.28;46.49;101704.31;7391423;19;20018;-59
2023/01/05 10:08:18;;;;;;;8.50;1.95;;;;;;;11.36;46.08;101713.63;7390627;19;20002;-58
2023/01/05 10:10:44;;;;;;;10.88;1.75;;;;;;;11.30;46.35;101708.34;7392956;19;20003;-59
2023/01/05 10:13:27;;;;;;;8.52;1.88;;;;;;;11.33;45.98;101711.53;7390280;19;20009;-59
2023/01/05 10:15:54;;;;;;;13.47;1.87;;;;;;;11.20;46.54;101716.06;7392363;19;20017;-60
2023/01/05 10:18:24;;;;;;;14.45;2.38;;;;;;;11.28;46.31;101712.50;7393118;19;20259;-59
2023/01/05 10:21:10;;;;;;;10.63;2.33;;;;;;;11.43;46.17;101719.41;7391006;19;20002;-59
2023/01/05 10:23:52;;;;;;;13.77;2.35;;;;;;;11.28;45.99;101718.78;7390469;19;20002;-59
2023/01/05 10:26:38;;;;;;;7.22;1.52;;;;;;;11.17;45.93;101722.16;7391305;19;20070;-57
2023/01/05 10:29:15;;;;;;;9.20;1.77;;;;;;;11.20;46.22;101727.78;7389017;19;20058;-58
2023/01/05 10:31:59;;;;;;;11.65;2.03;;;;;;;11.35;46.17;101721.00;7390069;19;20462;-59
2023/01/05 10:34:53;;;;;;;8.32;1.85;;;;;;;11.15;46.18;101727.16;7389853;19;20039;-59
2023/01/05 10:37:59;;;;;;;10.38;1.80;;;;;;;11.19;45.79;101728.09;7390809;19;20007;-59
2023/01/05 10:40:57;;;;;;;11.90;2.00;;;;;;;11.32;45.97;101732.59;7391423;19;20014;-59
2023/01/05 10:43:47;;;;;;;11.85;2.30;;;;;;;11.34;45.94;101729.53;7390278;19;20018;-58
2023/01/05 10:46:15;;;;;;;10.93;1.90;;;;;;;11.19;46.69;101739.84;7390020;19;19998;-58
2023/01/05 10:48:41;;;;;;;7.95;1.83;;;;;;;11.26;45.94;101747.56;7390077;19;20393;-58
2023/01/05 10:51:08;;;;;;;11.88;2.30;;;;;;;11.46;45.90;101751.56;7390472;19;19998;-59
2023/01/05 10:53:40;;;;;;;14.23;2.63;;;;;;;11.67;45.62;101754.41;7390204;19;20372;-59
2023/01/05 10:56:13;;;;;;;12.43;2.72;;;;;;;11.78;45.42;101752.94;7390686;19;20036;-58
2023/01/05 10:58:42;;;;;;;12.95;2.63;;;;;;;11.70;45.94;101761.97;7391682;19;20073;-58
2023/01/05 11:01:25;;;;;;;11.20;2.70;;;;;;;11.79;45.56;101754.53;7390629;19;20027;-59
2023/01/05 11:03:55;;;;;;;17.77;2.90;;;;;;;11.62;45.84;101758.13;7390088;19;20006;-59
2023/01/05 11:06:27;;;;;;;9.80;2.33;;;;;;;11.72;45.74;101758.91;7389780;19;20014;-59
2023/01/05 11:08:54;;;;;;;10.38;2.30;;;;;;;11.83;45.53;101754.69;7390579;19;20026;-60
2023/01/05 11:11:25;;;;;;;9.93;2.25;;;;;;;11.77;45.48;101759.53;7388663;19;20007;-59
2023/01/05 11:13:57;;;;;;;7.15;2.08;;;;;;;11.56;45.53;101758.63;7389529;19;20002;-59
2023/01/05 11:16:27;;;;;;;9.43;2.08;;;;;;;11.63;45.92;101765.19;7387712;19;20703;-60
2023/01/05 11:18:57;;;;;;;15.65;2.60;;;;;;;11.74;45.58;101762.09;7390124;19;20007;-58
2023/01/05 11:21:27;;;;;;;8.13;1.95;;;;;;;11.83;45.38;101758.22;7388778;19;20083;-58
2023/01/05 11:23:58;;;;;;;7.75;1.60;;;;;;;11.83;45.03;101771.09;7388774;19;19998;-58
2023/01/05 11:26:27;;;;;;;9.50;2.22;;;;;;;11.87;45.35;101763.06;7388533;19;20009;-59
2023/01/05 11:29:00;;;;;;;12.52;2.25;;;;;;;11.89;45.26;101774.47;7386044;19;19999;-58
2023/01/05 11:31:51;;;;;;;10.25;2.00;;;;;;;11.58;45.46;101761.84;7388989;19;20018;-59
2023/01/05 11:34:35;;;;;;;8.48;2.50;;;;;;;11.58;45.60;101767.31;7388833;19;20002;-59
2023/01/05 11:37:05;;;;;;;7.53;2.38;;;;;;;11.60;45.67;101765.03;7387917;19;20026;-57
2023/01/05 11:39:39;;;;;;;11.75;2.45;;;;;;;11.77;45.40;101756.81;7390360;19;20011;-59
2023/01/05 11:42:18;;;;;;;13.77;2.65;;;;;;;11.89;44.94;101778.03;7390913;19;20017;-58
2023/01/05 11:44:48;;;;;;;7.80;1.55;;;;;;;11.79;44.98;101776.44;7388515;19;19994;-58
2023/01/05 11:47:21;;;;;;;11.85;2.08;;;;;;;11.77;44.73;101777.88;7388385;19;20007;-59
2023/01/05 11:49:48;;;;;;;10.10;1.83;;;;;;;11.70;45.44;101783.84;7389687;19;20002;-59
2023/01/05 11:52:26;;;;;;;7.03;1.90;;;;;;;11.88;44.85;101778.38;7389813;19;19994;-60
2023/01/05 11:54:52;;;;;;;9.43;1.98;;;;;;;11.99;44.84;101774.94;7388416;19;20463;-59
2023/01/05 11:57:21;;;;;;;9.35;2.05;;;;;;;12.10;44.97;101780.84;7388249;19;20005;-58
2023/01/05 11:59:49;;;;;;;7.53;1.65;;;;;;;12.17;44.58;101772.97;7389982;19;20005;-59